createdAt,value
2024-01-08T00:01:15.910Z,95341.00
2024-01-08T00:03:48.791Z,95339.40
2024-01-08T00:06:19.241Z,95345.20
2024-01-08T00:08:47.432Z,95345.80
2024-01-08T00:11:15.599Z,95346.80
2024-01-08T00:13:43.805Z,95348.00
2024-01-08T00:16:13.039Z,95348.40
2024-01-08T00:18:42.367Z,95354.20
2024-01-08T00:21:10.494Z,95360.00
2024-01-08T00:23:38.826Z,95359.40
2024-01-08T00:26:07.193Z,95368.40
2024-01-08T00:28:35.404Z,95370.80
2024-01-08T00:31:03.559Z,95371.80
2024-01-08T00:33:31.820Z,95380.60
2024-01-08T00:36:00.087Z,95382.00
2024-01-08T00:38:28.344Z,95381.40
2024-01-08T00:40:56.419Z,95378.60
2024-01-08T00:43:24.412Z,95384.40
2024-01-08T00:45:52.492Z,95380.20
2024-01-08T00:48:20.709Z,95386.40
2024-01-08T00:50:49.426Z,95386.40
2024-01-08T00:53:17.716Z,95386.40
2024-01-08T00:55:45.842Z,95389.80
2024-01-08T00:58:13.897Z,95386.00
2024-01-08T01:00:42.055Z,95388.80
2024-01-08T01:03:11.342Z,95390.00
2024-01-08T01:05:39.775Z,95389.80
2024-01-08T01:08:08.112Z,95393.20
2024-01-08T01:10:36.258Z,95395.20
2024-01-08T01:13:04.563Z,95397.60
2024-01-08T01:15:32.666Z,95396.80
2024-01-08T01:18:01.590Z,95401.40
2024-01-08T01:20:29.939Z,95397.60
2024-01-08T01:22:58.149Z,95390.40
2024-01-08T01:25:27.410Z,95395.00
2024-01-08T01:27:55.536Z,95397.00
2024-01-08T01:30:23.738Z,95395.80
2024-01-08T01:32:51.929Z,95395.00
2024-01-08T01:35:20.269Z,95398.80
2024-01-08T01:37:48.501Z,95397.40
2024-01-08T01:40:16.634Z,95393.40
2024-01-08T01:42:44.696Z,95394.80
2024-01-08T01:45:12.821Z,95395.80
2024-01-08T01:47:41.149Z,95396.20
2024-01-08T01:50:09.880Z,95398.40
2024-01-08T01:52:37.927Z,95398.80
2024-01-08T01:55:06.882Z,95404.60
2024-01-08T01:57:35.451Z,95400.20
2024-01-08T02:00:04.387Z,95402.20
2024-01-08T02:02:41.349Z,95404.20
2024-01-08T02:05:09.595Z,95404.00
2024-01-08T02:07:37.992Z,95401.00
2024-01-08T02:10:07.069Z,95406.20
2024-01-08T02:12:35.207Z,95405.40
2024-01-08T02:15:05.567Z,95407.20
2024-01-08T02:17:33.878Z,95408.40
2024-01-08T02:20:02.143Z,95408.00
2024-01-08T02:22:30.360Z,95405.60
2024-01-08T02:24:58.494Z,95407.00
2024-01-08T02:27:26.628Z,95409.00
2024-01-08T02:29:54.865Z,95411.60
2024-01-08T02:32:23.077Z,95412.80
2024-01-08T02:34:51.350Z,95416.80
2024-01-08T02:37:19.616Z,95418.20
2024-01-08T02:39:47.689Z,95415.80
2024-01-08T02:42:15.955Z,95418.40
2024-01-08T02:44:44.055Z,95411.40
2024-01-08T02:47:12.235Z,95415.80
2024-01-08T02:49:40.363Z,95421.20
2024-01-08T02:52:08.522Z,95421.80
2024-01-08T02:54:36.564Z,95424.80
2024-01-08T02:57:05.049Z,95428.80
2024-01-08T02:59:33.297Z,95432.60
2024-01-08T03:02:01.487Z,95431.60
2024-01-08T03:04:29.669Z,95434.60
2024-01-08T03:06:58.243Z,95430.00
2024-01-08T03:09:26.935Z,95432.80
2024-01-08T03:11:55.126Z,95437.60
2024-01-08T03:14:23.359Z,95436.40
2024-01-08T03:16:51.487Z,95438.60
2024-01-08T03:19:19.780Z,95442.60
2024-01-08T03:21:47.892Z,95438.00
2024-01-08T03:24:16.120Z,95445.00
2024-01-08T03:26:44.324Z,95447.80
2024-01-08T03:29:12.659Z,95447.40
2024-01-08T03:31:44.461Z,95442.20
2024-01-08T03:34:13.629Z,95449.80
2024-01-08T03:36:48.629Z,95453.40
2024-01-08T03:39:17.232Z,95461.40
2024-01-08T03:41:45.353Z,95464.80
2024-01-08T03:44:15.420Z,95465.00
2024-01-08T03:46:43.868Z,95465.40
2024-01-08T03:49:13.230Z,95468.80
2024-01-08T03:51:41.481Z,95468.60
2024-01-08T03:54:09.841Z,95470.60
2024-01-08T03:56:38.219Z,95467.20
2024-01-08T03:59:06.406Z,95469.20
2024-01-08T04:01:34.834Z,95469.80
2024-01-08T04:04:02.933Z,95475.80
2024-01-08T04:06:31.138Z,95471.20
2024-01-08T04:08:59.313Z,95476.80
2024-01-08T04:11:27.441Z,95478.40
2024-01-08T04:13:55.636Z,95481.80
2024-01-08T04:16:23.815Z,95480.60
2024-01-08T04:18:52.037Z,95483.20
2024-01-08T04:21:20.140Z,95491.80
2024-01-08T04:23:48.233Z,95491.80
2024-01-08T04:26:17.119Z,95497.20
2024-01-08T04:28:45.249Z,95498.20
2024-01-08T04:31:19.894Z,95502.80
2024-01-08T04:33:48.608Z,95504.00
2024-01-08T04:36:16.859Z,95510.20
2024-01-08T04:38:45.984Z,95514.20
2024-01-08T04:41:21.195Z,95512.40
2024-01-08T04:43:50.051Z,95520.60
2024-01-08T04:46:18.533Z,95521.20
2024-01-08T04:48:46.768Z,95525.00
2024-01-08T04:51:23.683Z,95526.60
2024-01-08T04:53:51.843Z,95526.40
2024-01-08T04:56:24.449Z,95534.80
2024-01-08T04:58:53.378Z,95536.20
2024-01-08T05:01:21.749Z,95541.20
2024-01-08T05:03:50.178Z,95544.20
2024-01-08T05:06:18.432Z,95544.40
2024-01-08T05:08:46.513Z,95545.40
2024-01-08T05:11:15.127Z,95550.00
2024-01-08T05:13:43.516Z,95550.60
2024-01-08T05:16:11.571Z,95559.20
2024-01-08T05:18:39.901Z,95563.00
2024-01-08T05:21:09.278Z,95559.40
2024-01-08T05:23:37.498Z,95560.60
2024-01-08T05:26:05.859Z,95564.00
2024-01-08T05:28:34.040Z,95568.00
2024-01-08T05:31:02.311Z,95570.00
2024-01-08T05:33:30.610Z,95571.80
2024-01-08T05:35:58.776Z,95573.20
2024-01-08T05:38:27.027Z,95575.60
2024-01-08T05:40:57.112Z,95578.20
2024-01-08T05:43:25.436Z,95581.00
2024-01-08T05:45:55.137Z,95583.80
2024-01-08T05:48:23.353Z,95584.20
2024-01-08T05:50:51.554Z,95586.20
2024-01-08T05:53:19.632Z,95588.40
2024-01-08T05:55:47.900Z,95592.40
2024-01-08T05:58:16.005Z,95596.20
2024-01-08T06:00:44.174Z,95594.20
2024-01-08T06:03:12.312Z,95601.20
2024-01-08T06:05:40.508Z,95601.80
2024-01-08T06:08:09.519Z,95606.00
2024-01-08T06:10:39.392Z,95608.00
2024-01-08T06:13:08.590Z,95608.80
2024-01-08T06:15:36.900Z,95609.60
2024-01-08T06:18:08.304Z,95617.20
2024-01-08T06:20:36.532Z,95616.20
2024-01-08T06:23:04.791Z,95622.60
2024-01-08T06:25:32.934Z,95622.20
2024-01-08T06:28:01.065Z,95626.60
2024-01-08T06:30:29.309Z,95628.20
2024-01-08T06:32:57.723Z,95629.40
2024-01-08T06:35:25.974Z,95636.40
2024-01-08T06:37:54.162Z,95641.80
2024-01-08T06:40:22.362Z,95643.40
2024-01-08T06:43:00.242Z,95647.80
2024-01-08T06:45:30.339Z,95653.40
2024-01-08T06:47:58.648Z,95654.80
2024-01-08T06:50:27.211Z,95658.20
2024-01-08T06:52:55.553Z,95660.80
2024-01-08T06:55:23.782Z,95666.00
2024-01-08T06:57:53.962Z,95670.00
2024-01-08T07:00:22.632Z,95666.00
2024-01-08T07:02:51.019Z,95669.20
2024-01-08T07:05:19.801Z,95670.20
2024-01-08T07:07:48.285Z,95675.00
2024-01-08T07:10:16.499Z,95679.20
2024-01-08T07:12:44.574Z,95684.00
2024-01-08T07:15:41.830Z,95691.60
2024-01-08T07:18:10.366Z,95689.80
2024-01-08T07:20:39.070Z,95700.40
2024-01-08T07:23:09.634Z,95704.80
2024-01-08T07:25:41.159Z,95713.20
2024-01-08T07:28:12.858Z,95721.20
2024-01-08T07:30:41.086Z,95716.80
2024-01-08T07:33:09.597Z,95719.20
2024-01-08T07:35:37.865Z,95722.80
2024-01-08T07:38:06.192Z,95723.60
2024-01-08T07:40:34.323Z,95732.60
2024-01-08T07:43:02.426Z,95733.80
2024-01-08T07:45:30.732Z,95736.00
2024-01-08T07:47:59.030Z,95740.00
2024-01-08T07:50:27.557Z,95742.40
2024-01-08T07:52:55.956Z,95742.20
2024-01-08T07:55:24.268Z,95748.00
2024-01-08T07:57:52.327Z,95752.20
2024-01-08T08:00:23.078Z,95760.20
2024-01-08T08:02:52.398Z,95760.40
2024-01-08T08:05:20.906Z,95768.60
2024-01-08T08:07:49.225Z,95771.20
2024-01-08T08:10:17.981Z,95772.40
2024-01-08T08:12:46.637Z,95769.20
2024-01-08T08:15:14.822Z,95782.80
2024-01-08T08:17:43.112Z,95780.80
2024-01-08T08:20:12.260Z,95779.80
2024-01-08T08:22:43.874Z,95784.20
2024-01-08T08:25:12.855Z,95786.40
2024-01-08T08:27:41.099Z,95790.40
2024-01-08T08:30:12.619Z,95787.20
2024-01-08T08:32:41.284Z,95791.40
2024-01-08T08:35:12.704Z,95796.00
2024-01-08T08:37:51.997Z,95798.60
2024-01-08T08:40:23.021Z,95807.20
2024-01-08T08:42:51.724Z,95809.40
2024-01-08T08:45:20.370Z,95817.00
2024-01-08T08:47:49.107Z,95816.40
2024-01-08T08:50:17.679Z,95819.40
2024-01-08T08:52:46.364Z,95827.00
2024-01-08T08:55:15.179Z,95828.60
2024-01-08T08:57:43.613Z,95828.60
2024-01-08T09:00:13.554Z,95826.00
2024-01-08T09:02:43.798Z,95831.20
2024-01-08T09:05:12.243Z,95835.00
2024-01-08T09:07:40.460Z,95835.40
2024-01-08T09:10:09.148Z,95831.00
2024-01-08T09:12:37.239Z,95836.00
2024-01-08T09:15:05.565Z,95834.20
2024-01-08T09:17:36.304Z,95835.40
2024-01-08T09:20:06.584Z,95833.80
2024-01-08T09:22:34.703Z,95832.00
2024-01-08T09:25:03.004Z,95837.60
2024-01-08T09:27:31.453Z,95838.00
2024-01-08T09:29:59.912Z,95841.20
2024-01-08T09:32:28.240Z,95845.20
2024-01-08T09:34:56.548Z,95848.40
2024-01-08T09:37:26.817Z,95849.80
2024-01-08T09:39:57.578Z,95850.80
2024-01-08T09:42:27.574Z,95855.00
2024-01-08T09:44:55.989Z,95851.20
2024-01-08T09:47:24.264Z,95850.40
2024-01-08T09:49:52.715Z,95850.00
2024-01-08T09:52:21.261Z,95846.20
2024-01-08T09:54:52.460Z,95856.60
2024-01-08T09:57:21.925Z,95854.60
2024-01-08T09:59:50.045Z,95859.60
2024-01-08T10:02:18.258Z,95860.40
2024-01-08T10:04:46.502Z,95864.00
2024-01-08T10:07:14.707Z,95867.80
2024-01-08T10:09:42.833Z,95871.40
2024-01-08T10:12:13.632Z,95870.40
2024-01-08T10:14:41.910Z,95870.60
2024-01-08T10:17:10.222Z,95873.20
2024-01-08T10:19:38.697Z,95869.60
2024-01-08T10:22:07.225Z,95870.20
2024-01-08T10:24:36.253Z,95870.60
2024-01-08T10:27:05.166Z,95873.40
2024-01-08T10:29:33.604Z,95872.80
2024-01-08T10:32:02.258Z,95877.20
2024-01-08T10:34:31.357Z,95880.40
2024-01-08T10:36:59.435Z,95884.40
2024-01-08T10:39:38.140Z,95883.40
2024-01-08T10:42:12.314Z,95881.60
2024-01-08T10:44:40.519Z,95882.80
2024-01-08T10:47:15.498Z,95883.00
2024-01-08T10:49:49.221Z,95885.80
2024-01-08T10:52:27.474Z,95887.20
2024-01-08T10:54:59.129Z,95886.60
2024-01-08T10:57:38.072Z,95892.00
2024-01-08T11:00:10.263Z,95894.80
2024-01-08T11:02:38.951Z,95892.00
2024-01-08T11:05:09.415Z,95890.40
2024-01-08T11:07:41.606Z,95895.80
2024-01-08T11:10:12.704Z,95894.40
2024-01-08T11:12:43.715Z,95895.40
2024-01-08T11:15:16.136Z,95896.60
2024-01-08T11:17:54.374Z,95906.00
2024-01-08T11:20:39.919Z,95906.40
2024-01-08T11:23:40.707Z,95907.80
2024-01-08T11:26:11.360Z,95913.60
2024-01-08T11:28:41.690Z,95910.60
2024-01-08T11:31:37.469Z,95912.20
2024-01-08T11:34:26.984Z,95919.00
2024-01-08T11:37:18.455Z,95910.60
2024-01-08T11:39:46.552Z,95911.20
2024-01-08T11:42:14.646Z,95913.60
2024-01-08T11:44:42.950Z,95913.00
2024-01-08T11:47:12.942Z,95914.40
2024-01-08T11:49:41.317Z,95916.00
2024-01-08T11:52:09.616Z,95917.60
2024-01-08T11:54:37.815Z,95919.60
2024-01-08T11:57:06.176Z,95923.40
2024-01-08T11:59:35.072Z,95923.00
2024-01-08T12:02:19.560Z,95924.60
2024-01-08T12:05:00.682Z,95929.40
2024-01-08T12:07:29.412Z,95932.40
2024-01-08T12:09:59.502Z,95934.80
2024-01-08T12:12:27.807Z,95943.20
2024-01-08T12:14:56.037Z,95937.40
2024-01-08T12:17:24.189Z,95942.40
2024-01-08T12:19:56.491Z,95949.20
2024-01-08T12:22:25.695Z,95954.00
2024-01-08T12:24:54.535Z,95954.20
2024-01-08T12:27:23.387Z,95957.60
2024-01-08T12:29:51.933Z,95959.40
2024-01-08T12:32:21.396Z,95959.80
2024-01-08T12:34:49.550Z,95966.40
2024-01-08T12:37:18.584Z,95966.20
2024-01-08T12:39:46.750Z,95969.80
2024-01-08T12:42:15.913Z,95977.80
2024-01-08T12:44:44.820Z,95981.00
2024-01-08T12:47:13.057Z,95984.40
2024-01-08T12:49:41.361Z,95983.40
2024-01-08T12:52:11.610Z,95990.20
2024-01-08T12:54:41.850Z,95994.20
2024-01-08T12:57:12.111Z,95994.60
2024-01-08T12:59:40.732Z,95998.60
2024-01-08T13:02:08.813Z,96006.40
2024-01-08T13:04:36.989Z,96007.00
2024-01-08T13:07:05.023Z,96014.60
2024-01-08T13:09:33.142Z,96016.80
2024-01-08T13:12:01.293Z,96020.60
2024-01-08T13:14:29.897Z,96022.00
2024-01-08T13:16:58.042Z,96022.20
2024-01-08T13:19:26.372Z,96025.40
2024-01-08T13:21:54.534Z,96028.60
2024-01-08T13:24:23.435Z,96035.20
2024-01-08T13:26:51.621Z,96030.80
2024-01-08T13:29:20.329Z,96038.60
2024-01-08T13:31:48.498Z,96048.40
2024-01-08T13:34:17.212Z,96052.00
2024-01-08T13:36:45.366Z,96059.20
2024-01-08T13:39:13.510Z,96062.00
2024-01-08T13:41:43.607Z,96062.40
2024-01-08T13:44:12.330Z,96067.00
2024-01-08T13:46:40.575Z,96069.00
2024-01-08T13:49:08.850Z,96072.20
2024-01-08T13:51:36.927Z,96074.20
2024-01-08T13:54:06.662Z,96077.80
2024-01-08T13:56:35.394Z,96081.80
2024-01-08T13:59:06.802Z,96086.00
2024-01-08T14:01:34.927Z,96093.80
2024-01-08T14:04:03.255Z,96094.80
2024-01-08T14:06:31.597Z,96096.40
2024-01-08T14:08:59.877Z,96103.20
2024-01-08T14:11:28.001Z,96105.20
2024-01-08T14:13:56.257Z,96110.80
2024-01-08T14:16:24.331Z,96120.00
2024-01-08T14:18:52.464Z,96120.00
2024-01-08T14:21:20.606Z,96121.60
2024-01-08T14:23:48.761Z,96129.00
2024-01-08T14:26:16.938Z,96131.20
2024-01-08T14:28:45.095Z,96130.60
2024-01-08T14:31:13.366Z,96135.60
2024-01-08T14:33:41.686Z,96134.80
2024-01-08T14:36:10.005Z,96138.40
2024-01-08T14:38:38.884Z,96140.60
2024-01-08T14:41:07.150Z,96150.20
2024-01-08T14:43:37.763Z,96149.60
2024-01-08T14:46:08.766Z,96155.60
2024-01-08T14:48:37.189Z,96158.00
2024-01-08T14:51:07.684Z,96161.60
2024-01-08T14:53:37.535Z,96165.00
2024-01-08T14:56:06.068Z,96167.40
2024-01-08T14:58:34.136Z,96169.00
2024-01-08T15:01:02.316Z,96174.20
2024-01-08T15:03:30.438Z,96176.40
2024-01-08T15:05:58.774Z,96185.40
2024-01-08T15:08:27.993Z,96190.20
2024-01-08T15:10:58.485Z,96195.20
2024-01-08T15:13:26.604Z,96200.60
2024-01-08T15:15:54.732Z,96200.80
2024-01-08T15:18:22.957Z,96207.40
2024-01-08T15:20:51.255Z,96206.20
2024-01-08T15:23:19.547Z,96211.20
2024-01-08T15:25:49.281Z,96214.20
2024-01-08T15:28:18.953Z,96219.20
2024-01-08T15:30:47.083Z,96221.40
2024-01-08T15:33:15.304Z,96227.20
2024-01-08T15:35:43.556Z,96235.20
2024-01-08T15:38:11.656Z,96239.00
2024-01-08T15:40:39.833Z,96243.00
2024-01-08T15:43:07.880Z,96246.60
2024-01-08T15:45:35.873Z,96249.60
2024-01-08T15:48:04.422Z,96249.40
2024-01-08T15:50:32.736Z,96252.80
2024-01-08T15:53:02.639Z,96256.60
2024-01-08T15:55:30.843Z,96264.00
2024-01-08T15:58:00.311Z,96267.40
2024-01-08T16:00:28.548Z,96271.20
2024-01-08T16:02:56.783Z,96269.60
2024-01-08T16:05:25.192Z,96276.40
2024-01-08T16:07:53.431Z,96276.80
2024-01-08T16:10:21.553Z,96267.80
2024-01-08T16:12:50.031Z,96277.60
2024-01-08T16:15:18.052Z,96284.40
2024-01-08T16:17:46.250Z,96287.60
2024-01-08T16:20:14.395Z,96295.80
2024-01-08T16:22:43.076Z,96293.80
2024-01-08T16:25:11.464Z,96302.20
2024-01-08T16:27:39.651Z,96312.40
2024-01-08T16:30:08.288Z,96308.40
2024-01-08T16:32:36.592Z,96315.40
2024-01-08T16:35:05.836Z,96323.60
2024-01-08T16:37:34.362Z,96327.20
2024-01-08T16:40:03.105Z,96330.40
2024-01-08T16:42:31.304Z,96337.00
2024-01-08T16:44:59.668Z,96339.40
2024-01-08T16:47:27.921Z,96342.40
2024-01-08T16:49:56.549Z,96345.80
2024-01-08T16:52:25.034Z,96347.60
2024-01-08T16:54:53.093Z,96353.40
2024-01-08T16:57:21.208Z,96361.60
2024-01-08T16:59:52.041Z,96363.20
2024-01-08T17:02:20.296Z,96365.20
2024-01-08T17:04:48.963Z,96368.40
2024-01-08T17:07:17.329Z,96367.60
2024-01-08T17:09:48.220Z,96363.20
2024-01-08T17:12:16.390Z,96367.60
2024-01-08T17:14:44.570Z,96372.60
2024-01-08T17:17:13.790Z,96370.00
2024-01-08T17:19:41.970Z,96375.60
2024-01-08T17:22:10.122Z,96378.20
2024-01-08T17:24:38.192Z,96379.20
2024-01-08T17:27:06.400Z,96382.60
2024-01-08T17:29:34.854Z,96385.60
2024-01-08T17:32:02.999Z,96390.40
2024-01-08T17:34:31.175Z,96387.20
2024-01-08T17:36:59.356Z,96400.40
2024-01-08T17:39:27.584Z,96407.00
2024-01-08T17:41:55.808Z,96410.60
2024-01-08T17:44:24.274Z,96413.80
2024-01-08T17:46:57.186Z,96413.80
2024-01-08T17:49:26.351Z,96421.60
2024-01-08T17:51:54.556Z,96425.40
2024-01-08T17:54:26.012Z,96427.00
2024-01-08T17:56:57.959Z,96423.40
2024-01-08T17:59:26.338Z,96424.20
2024-01-08T18:01:54.580Z,96432.20
2024-01-08T18:04:23.442Z,96435.20
2024-01-08T18:06:53.339Z,96439.40
2024-01-08T18:09:23.316Z,96438.40
2024-01-08T18:11:51.359Z,96435.40
2024-01-08T18:14:19.877Z,96432.60
2024-01-08T18:16:47.997Z,96430.40
2024-01-08T18:19:16.170Z,96432.80
2024-01-08T18:21:44.271Z,96433.20
2024-01-08T18:24:23.329Z,96443.40
2024-01-08T18:26:56.705Z,96443.40
2024-01-08T18:29:24.970Z,96454.80
2024-01-08T18:31:53.354Z,96453.80
2024-01-08T18:34:21.669Z,96460.80
2024-01-08T18:36:49.927Z,96466.40
2024-01-08T18:39:18.587Z,96470.00
2024-01-08T18:41:49.913Z,96469.80
2024-01-08T18:44:18.704Z,96475.60
2024-01-08T18:46:47.217Z,96475.20
2024-01-08T18:49:21.727Z,96479.80
2024-01-08T18:51:51.003Z,96491.20
2024-01-08T18:54:20.262Z,96489.20
2024-01-08T18:56:50.280Z,96491.60
2024-01-08T18:59:18.564Z,96490.40
2024-01-08T19:01:46.666Z,96496.80
2024-01-08T19:04:14.823Z,96499.00
2024-01-08T19:06:43.551Z,96504.40
2024-01-08T19:09:11.764Z,96511.60
2024-01-08T19:11:39.914Z,96515.60
2024-01-08T19:14:08.662Z,96522.60
2024-01-08T19:16:36.894Z,96527.40
2024-01-08T19:19:05.222Z,96532.80
2024-01-08T19:21:33.297Z,96537.80
2024-01-08T19:24:06.323Z,96543.40
2024-01-08T19:26:34.398Z,96544.80
2024-01-08T19:29:02.566Z,96546.60
2024-01-08T19:31:32.432Z,96551.40
2024-01-08T19:34:00.804Z,96555.80
2024-01-08T19:36:29.085Z,96557.20
2024-01-08T19:38:57.137Z,96556.60
2024-01-08T19:41:25.643Z,96561.40
2024-01-08T19:43:53.848Z,96570.20
2024-01-08T19:46:21.997Z,96568.00
2024-01-08T19:48:50.155Z,96571.20
2024-01-08T19:51:18.392Z,96570.40
2024-01-08T19:53:47.183Z,96581.40
2024-01-08T19:56:16.044Z,96578.40
2024-01-08T19:58:45.639Z,96583.60
2024-01-08T20:01:18.464Z,96593.00
2024-01-08T20:03:46.562Z,96591.00
2024-01-08T20:06:14.774Z,96592.00
2024-01-08T20:08:43.102Z,96597.60
2024-01-08T20:11:12.134Z,96605.80
2024-01-08T20:13:40.291Z,96610.60
2024-01-08T20:16:09.652Z,96606.80
2024-01-08T20:18:38.985Z,96613.40
2024-01-08T20:21:07.901Z,96616.60
2024-01-08T20:23:36.273Z,96618.40
2024-01-08T20:26:11.513Z,96621.80
2024-01-08T20:28:40.210Z,96625.40
2024-01-08T20:31:08.874Z,96628.60
2024-01-08T20:33:39.248Z,96629.40
2024-01-08T20:36:07.864Z,96629.00
2024-01-08T20:38:36.085Z,96635.80
2024-01-08T20:41:04.483Z,96640.00
2024-01-08T20:43:32.735Z,96644.20
2024-01-08T20:46:00.816Z,96646.20
2024-01-08T20:48:28.935Z,96655.80
2024-01-08T20:50:57.141Z,96659.80
2024-01-08T20:53:25.423Z,96663.20
2024-01-08T20:55:53.675Z,96663.80
2024-01-08T20:58:22.374Z,96666.40
2024-01-08T21:00:50.606Z,96671.20
2024-01-08T21:03:18.792Z,96673.60
2024-01-08T21:05:47.038Z,96680.60
2024-01-08T21:08:16.436Z,96686.20
2024-01-08T21:10:44.677Z,96693.20
2024-01-08T21:13:12.726Z,96696.40
2024-01-08T21:15:42.025Z,96701.60
2024-01-08T21:18:10.504Z,96703.20
2024-01-08T21:20:38.792Z,96708.00
2024-01-08T21:23:07.025Z,96708.60
2024-01-08T21:25:35.117Z,96716.40
2024-01-08T21:28:03.368Z,96719.20
2024-01-08T21:30:32.553Z,96728.60
2024-01-08T21:33:01.066Z,96734.80
2024-01-08T21:35:29.285Z,96743.20
2024-01-08T21:37:57.493Z,96743.60
2024-01-08T21:40:26.585Z,96745.60
2024-01-08T21:42:54.968Z,96750.80
2024-01-08T21:45:23.104Z,96747.80
2024-01-08T21:47:51.414Z,96759.20
2024-01-08T21:50:19.769Z,96759.80
2024-01-08T21:52:47.812Z,96765.40
2024-01-08T21:55:15.953Z,96761.60
2024-01-08T21:57:44.196Z,96770.80
2024-01-08T22:00:13.004Z,96771.60
2024-01-08T22:02:41.101Z,96778.00
2024-01-08T22:05:09.322Z,96779.20
2024-01-08T22:07:38.065Z,96780.40
2024-01-08T22:10:07.548Z,96780.20
2024-01-08T22:12:41.542Z,96789.00
2024-01-08T22:15:11.191Z,96790.20
2024-01-08T22:17:39.615Z,96796.40
2024-01-08T22:20:08.081Z,96798.60
2024-01-08T22:22:36.254Z,96797.00
2024-01-08T22:25:04.585Z,96800.80
2024-01-08T22:27:32.958Z,96805.40
2024-01-08T22:30:01.155Z,96809.60
2024-01-08T22:32:29.534Z,96807.80
2024-01-08T22:34:57.826Z,96807.60
2024-01-08T22:37:26.020Z,96814.20
2024-01-08T22:39:54.164Z,96816.00
2024-01-08T22:42:22.844Z,96814.20
2024-01-08T22:44:50.936Z,96819.80
2024-01-08T22:47:19.127Z,96814.40
2024-01-08T22:49:47.325Z,96810.00
2024-01-08T22:52:15.415Z,96816.80
2024-01-08T22:54:43.473Z,96824.60
2024-01-08T22:57:11.584Z,96820.20
2024-01-08T22:59:43.536Z,96822.00
2024-01-08T23:02:11.783Z,96820.60
2024-01-08T23:04:41.850Z,96827.20
2024-01-08T23:07:09.906Z,96834.80
2024-01-08T23:09:38.160Z,96834.80
2024-01-08T23:12:07.002Z,96836.80
2024-01-08T23:14:35.215Z,96844.00
2024-01-08T23:17:04.550Z,96843.00
2024-01-08T23:19:33.934Z,96843.00
2024-01-08T23:22:02.208Z,96844.40
2024-01-08T23:24:32.609Z,96847.60
2024-01-08T23:27:02.078Z,96850.60
2024-01-08T23:29:30.693Z,96850.80
2024-01-08T23:31:58.787Z,96850.40
2024-01-08T23:34:27.109Z,96856.40
2024-01-08T23:36:55.300Z,96864.00
2024-01-08T23:39:23.444Z,96871.80
2024-01-08T23:41:51.951Z,96874.00
2024-01-08T23:44:20.126Z,96875.00
2024-01-08T23:46:48.193Z,96874.40
2024-01-08T23:49:17.862Z,96878.40
2024-01-08T23:51:45.996Z,96883.60
2024-01-08T23:54:14.212Z,96888.20
2024-01-08T23:56:42.358Z,96889.80
2024-01-08T23:59:10.627Z,96896.80
